Terminal Aerodrome Forecast
Issued by NWS Knoxville/Tri Cities, TN

Home | Current Version | Previous Version | Text Only | Print | Product List | Glossary On
Versions: 1 2 3 4 5 6 7 8 9 10 11 12 13 14 15 16 17 18 19 20 21 22 23 24 25 26 27 28 29 30
000
FTUS44 KMRX 071720
TAFCHA
TAF
KCHA 071720Z 0718/0818 20006KT P6SM SKC
     FM080200 20005KT P6SM SCT250
     FM080800 VRB03KT P6SM BKN050 OVC100
     FM081200 25007KT P6SM OVC050=

USA.gov is the U.S. government's official web portal to all federal, state and local government web resources and services.